Weather at Jorge Isaac Airport

Public forecast

Using degrees Celsius for public forecast. Weather courtesy of forecast.io.

Closest aviation weather report (METAR) to Jorge Isaac Airport

Closest report is Almirante Padilla Airport, 31.1 nm (57.7 km) NW. Retrieved 2022/08/15 19:00 UTC (55 minutes ago):

SKRH 151900Z 34010KT 300V040 9999 FEW015TCU 31/25 Q1009 RMK TCUS A2980

Closest aviation forecast (TAF) to Jorge Isaac Airport

Forecast is more than 12 hours old.

Closest forecast is Almirante Padilla Airport, 31.1 nm (57.7 km) NW. Retrieved 2020/12/14 06:45 UTC (2 years ago):

TAF SKRH 140430Z 1406/1506NIL